Time;durP1;ratioP1;P1;durP2;ratioP2;P2;SDS_P1;SDS_P2;PMS_P1;PMS_P2;Temp;Humidity;BMP_temperature;BMP_pressure;BME280_temperature;BME280_humidity;BME280_pressure;Samples;Min_cycle;Max_cycle;Signal;HPM_P1;HPM_P2
2023/10/14 00:03:17;;;;;;;5.80;4.60;;;;;;;19.76;74.94;99254.27;184293;1238;43698;-79
2023/10/14 00:07:25;;;;;;;8.10;3.30;;;;;;;19.79;73.84;99248.86;183370;1239;46145;-80
2023/10/14 00:12:30;;;;;;;8.00;4.60;;;;;;;19.88;73.28;99250.29;183988;1238;46157;-79
2023/10/14 00:16:02;;;;;;;4.80;3.80;;;;;;;19.95;73.02;99241.58;183385;1237;58326;-79
2023/10/14 00:20:05;;;;;;;9.70;3.40;;;;;;;19.99;73.07;99238.53;185164;1236;43653;-79
2023/10/14 00:24:07;;;;;;;8.20;5.60;;;;;;;19.96;73.23;99222.59;184670;1240;45955;-80
2023/10/14 00:28:19;;;;;;;5.70;3.50;;;;;;;19.92;72.85;99212.17;183834;1239;46008;-79
2023/10/14 00:32:22;;;;;;;8.60;4.50;;;;;;;19.87;74.06;99206.02;183938;1236;46278;-80
2023/10/14 00:36:30;;;;;;;8.70;3.20;;;;;;;19.75;74.29;99197.65;184463;1236;59468;-79
2023/10/14 00:40:33;;;;;;;9.00;3.90;;;;;;;19.62;74.96;99193.88;184111;1236;45719;-80
2023/10/14 00:44:37;;;;;;;9.50;5.00;;;;;;;19.51;75.20;99187.17;184567;1236;46459;-79
2023/10/14 00:48:40;;;;;;;19.10;4.80;;;;;;;19.43;74.94;99182.59;183542;1236;46015;-81
2023/10/14 00:52:44;;;;;;;14.60;5.00;;;;;;;19.45;74.68;99175.65;183942;1238;46016;-80
2023/10/14 00:56:47;;;;;;;9.70;4.00;;;;;;;19.39;74.54;99167.27;183917;1238;57931;-79
2023/10/14 01:00:59;;;;;;;9.20;3.70;;;;;;;19.39;74.62;99162.27;184392;1236;45994;-80
2023/10/14 01:05:17;;;;;;;11.50;4.20;;;;;;;19.42;75.25;99159.78;183832;1236;44601;-81
2023/10/14 01:09:19;;;;;;;7.20;4.30;;;;;;;19.44;76.09;99147.66;184449;1237;45135;-80
2023/10/14 01:13:22;;;;;;;6.70;3.60;;;;;;;19.42;76.54;99140.82;185663;1236;44774;-80
2023/10/14 01:17:31;;;;;;;4.90;3.70;;;;;;;19.36;76.46;99134.54;184047;1236;57997;-80
2023/10/14 01:21:38;;;;;;;7.90;4.60;;;;;;;19.36;76.31;99124.84;183683;1238;44807;-80
2023/10/14 01:25:47;;;;;;;9.30;4.80;;;;;;;19.34;77.20;99113.89;184884;1237;45980;-80
2023/10/14 01:29:51;;;;;;;9.20;4.20;;;;;;;19.32;78.03;99110.77;183938;1236;46131;-80
2023/10/14 01:33:53;;;;;;;6.70;4.30;;;;;;;19.25;78.69;99101.93;184784;1236;45945;-79
2023/10/14 01:37:56;;;;;;;11.90;5.00;;;;;;;19.13;79.37;99091.46;184490;1236;58344;-80
2023/10/14 01:41:58;;;;;;;9.30;4.30;;;;;;;19.04;79.83;99084.44;185145;1236;44685;-80
2023/10/14 01:46:00;;;;;;;8.60;5.00;;;;;;;19.02;80.66;99076.37;184990;1236;43714;-79
2023/10/14 01:50:04;;;;;;;8.50;4.30;;;;;;;19.08;80.23;99066.32;185486;1236;43880;-80
2023/10/14 01:54:09;;;;;;;7.60;4.40;;;;;;;19.15;79.29;99063.14;184358;1236;45724;-80
2023/10/14 01:58:29;;;;;;;10.80;5.10;;;;;;;19.21;78.61;99055.87;183463;1237;58060;-80
2023/10/14 02:02:31;;;;;;;8.90;4.50;;;;;;;19.26;78.21;99045.45;183694;1236;45992;-79
2023/10/14 02:06:33;;;;;;;6.40;4.00;;;;;;;19.28;77.43;99033.33;183751;1236;43896;-80
2023/10/14 02:10:35;;;;;;;6.40;3.70;;;;;;;19.32;76.89;99033.89;183306;1236;46019;-79
2023/10/14 02:14:44;;;;;;;9.60;5.70;;;;;;;19.37;76.87;99023.98;183075;1236;45920;-79
2023/10/14 02:18:45;;;;;;;22.20;5.00;;;;;;;19.43;76.50;99020.65;184367;1236;57939;-79
2023/10/14 02:22:49;;;;;;;8.10;4.40;;;;;;;19.50;76.91;99028.33;183748;1236;45978;-80
2023/10/14 02:26:52;;;;;;;6.70;3.90;;;;;;;19.52;76.82;99025.16;184396;1236;46337;-79
2023/10/14 02:30:59;;;;;;;7.60;4.70;;;;;;;19.52;76.95;99027.31;183799;1236;45979;-80
2023/10/14 02:35:01;;;;;;;21.10;4.90;;;;;;;19.50;77.33;99023.32;184030;1236;44270;-79
2023/10/14 02:39:14;;;;;;;9.40;5.30;;;;;;;19.46;77.70;99016.64;185242;1240;58098;-79
2023/10/14 02:43:16;;;;;;;9.50;4.60;;;;;;;19.39;77.71;99009.88;183955;1237;45091;-79
2023/10/14 02:47:26;;;;;;;7.90;4.60;;;;;;;19.34;77.90;99009.90;185015;1236;43632;-79
2023/10/14 02:51:44;;;;;;;11.80;5.10;;;;;;;19.34;78.61;99015.54;184417;1236;44059;-79
2023/10/14 02:55:56;;;;;;;9.80;4.40;;;;;;;19.32;79.52;99024.23;184767;1236;45890;-79
2023/10/14 02:59:58;;;;;;;8.00;5.00;;;;;;;19.32;80.64;99023.93;184344;1236;59232;-79
2023/10/14 03:04:07;;;;;;;9.80;5.10;;;;;;;19.32;81.37;99041.60;183184;1237;46098;-79
2023/10/14 03:08:10;;;;;;;11.50;4.90;;;;;;;19.33;82.63;99046.45;183408;1236;45975;-80
2023/10/14 03:12:14;;;;;;;16.40;4.60;;;;;;;19.31;83.16;99043.47;184216;1237;43604;-80
2023/10/14 03:16:17;;;;;;;13.60;4.90;;;;;;;19.33;83.53;99030.73;183416;1236;46096;-79
2023/10/14 03:24:32;;;;;;;7.50;4.20;;;;;;;19.33;83.59;99017.91;184781;1236;46038;-80
2023/10/14 03:28:37;;;;;;;6.30;4.80;;;;;;;19.27;83.80;99016.67;184175;1240;46107;-79
2023/10/14 03:32:42;;;;;;;10.40;5.10;;;;;;;19.22;83.88;99020.11;183245;1236;46205;-79
2023/10/14 03:36:43;;;;;;;8.70;4.50;;;;;;;19.22;83.83;99023.14;185209;1236;44671;-80
2023/10/14 03:44:47;;;;;;;15.30;5.30;;;;;;;19.19;84.65;99021.59;184442;1237;45918;-79
2023/10/14 03:48:56;;;;;;;12.40;4.70;;;;;;;19.19;84.82;99014.49;183212;1237;46041;-79
2023/10/14 03:52:58;;;;;;;7.40;4.20;;;;;;;19.17;85.22;99000.86;184059;1236;45643;-80
2023/10/14 03:57:03;;;;;;;7.80;4.60;;;;;;;19.14;84.85;98981.34;184268;1237;45906;-80
2023/10/14 04:05:37;;;;;;;35.50;4.70;;;;;;;19.20;84.27;98971.15;183579;1235;88413;-88
2023/10/14 04:09:51;;;;;;;9.50;5.50;;;;;;;19.23;84.55;98976.61;182855;1235;46049;-88
2023/10/14 04:14:08;;;;;;;8.60;4.90;;;;;;;19.23;84.60;98979.39;182544;1240;45936;-88
2023/10/14 04:18:12;;;;;;;9.30;4.70;;;;;;;19.23;84.62;98974.99;183008;1235;45883;-89
2023/10/14 04:26:31;;;;;;;9.00;4.90;;;;;;;19.23;85.19;98969.80;182611;1235;44581;-89
2023/10/14 04:30:38;;;;;;;8.90;5.20;;;;;;;19.21;85.12;98968.20;182732;1235;45963;-88
2023/10/14 04:34:45;;;;;;;13.80;5.60;;;;;;;19.19;85.05;98964.27;182425;1235;45948;-87
2023/10/14 04:39:04;;;;;;;10.40;5.00;;;;;;;19.19;85.05;98959.54;182609;1235;46531;-89
2023/10/14 04:47:37;;;;;;;8.50;4.90;;;;;;;19.18;85.65;98961.95;182544;1236;45977;-89
2023/10/14 04:51:46;;;;;;;8.90;4.60;;;;;;;19.19;85.51;98964.64;182795;1235;44035;-89
2023/10/14 04:55:51;;;;;;;10.40;5.80;;;;;;;19.21;86.58;98970.98;182716;1237;46013;-90
2023/10/14 04:59:55;;;;;;;9.80;4.30;;;;;;;19.20;86.57;98967.21;182852;1235;46176;-89
2023/10/14 05:03:58;;;;;;;9.90;5.80;;;;;;;19.18;86.63;98962.58;183077;1238;59241;-88
2023/10/14 05:08:05;;;;;;;12.50;5.30;;;;;;;19.18;86.87;98966.60;182795;1235;46082;-89
2023/10/14 05:12:14;;;;;;;15.40;5.40;;;;;;;19.19;86.93;98965.98;182715;1235;46041;-89
2023/10/14 05:16:20;;;;;;;10.30;5.50;;;;;;;19.17;88.19;98974.44;182507;1238;45985;-90
2023/10/14 05:20:47;;;;;;;14.90;6.40;;;;;;;19.14;88.54;98969.64;182762;1234;46046;-89
2023/10/14 05:25:03;;;;;;;9.70;5.00;;;;;;;19.13;88.96;98968.25;182964;1238;58259;-90
2023/10/14 05:29:16;;;;;;;;;;;;;;;19.06;89.23;98970.71;182865;1234;45854;-90
2023/10/14 05:33:21;;;;;;;9.60;5.20;;;;;;;19.09;89.41;98979.13;182791;1238;45903;-90
2023/10/14 05:37:23;;;;;;;6.60;4.90;;;;;;;19.10;88.76;98975.11;183054;1235;45939;-90
2023/10/14 05:41:26;;;;;;;7.20;4.60;;;;;;;19.09;88.07;98970.91;182798;1235;46096;-89
2023/10/14 05:45:34;;;;;;;9.40;5.20;;;;;;;19.08;87.45;98979.58;182415;1238;58113;-89
2023/10/14 05:49:36;;;;;;;9.50;5.60;;;;;;;19.11;87.28;98989.70;182356;1235;46088;-89
2023/10/14 05:53:39;;;;;;;12.00;6.50;;;;;;;19.11;86.98;98990.27;182523;1235;46078;-89
2023/10/14 05:57:42;;;;;;;10.80;5.10;;;;;;;19.13;86.83;98987.77;183648;1235;46203;-89
2023/10/14 06:01:46;;;;;;;6.20;4.70;;;;;;;19.13;87.43;98984.33;182531;1235;45925;-89
2023/10/14 06:05:49;;;;;;;14.10;5.50;;;;;;;19.13;89.41;98983.25;182494;1235;58683;-90
2023/10/14 06:09:51;;;;;;;9.00;5.70;;;;;;;19.07;90.83;98978.87;182377;1238;46066;-89
2023/10/14 06:13:53;;;;;;;9.40;5.60;;;;;;;19.02;90.23;98975.45;182483;1234;45986;-89
2023/10/14 06:17:57;;;;;;;9.10;5.70;;;;;;;18.99;89.87;98981.48;182569;1235;44056;-89
2023/10/14 06:22:00;;;;;;;6.20;3.90;;;;;;;18.98;89.73;98974.67;182395;1238;277339;-89
2023/10/14 06:26:05;;;;;;;6.00;4.60;;;;;;;19.01;89.19;98970.74;182746;1238;59104;-89
2023/10/14 06:30:18;;;;;;;12.00;5.10;;;;;;;19.04;90.00;98972.13;183008;1235;45953;-90
2023/10/14 06:34:21;;;;;;;10.80;6.00;;;;;;;19.08;89.16;98980.40;182954;1235;45014;-90
2023/10/14 06:38:23;;;;;;;10.10;4.90;;;;;;;19.12;89.11;98976.95;182858;1235;46186;-90
2023/10/14 06:42:26;;;;;;;7.30;4.30;;;;;;;19.18;88.44;98983.59;182730;1234;45954;-89
2023/10/14 06:46:29;;;;;;;7.90;4.50;;;;;;;19.24;87.77;98980.67;183052;1235;58733;-89
2023/10/14 06:50:32;;;;;;;10.10;5.20;;;;;;;19.29;86.76;98993.56;183108;1235;45934;-90
2023/10/14 06:54:36;;;;;;;5.80;4.70;;;;;;;19.36;86.30;98996.88;183462;1234;46603;-90
2023/10/14 06:58:39;;;;;;;8.20;4.80;;;;;;;19.41;85.66;98996.52;184088;1238;44083;-88
2023/10/14 07:02:42;;;;;;;8.30;5.10;;;;;;;19.43;85.48;98999.45;184277;1238;44849;-89
2023/10/14 07:06:47;;;;;;;5.80;4.20;;;;;;;19.46;85.87;98987.58;184507;1235;59256;-87
2023/10/14 07:10:55;;;;;;;5.70;3.70;;;;;;;19.49;85.67;98978.89;184009;1234;45839;-86
2023/10/14 07:14:58;;;;;;;9.20;4.60;;;;;;;19.52;85.14;98978.78;184471;1237;46065;-88
2023/10/14 07:19:04;;;;;;;8.20;4.90;;;;;;;19.58;85.63;98972.23;184533;1238;45820;-88
2023/10/14 07:23:09;;;;;;;11.50;4.60;;;;;;;19.63;85.45;98972.35;184214;1235;46066;-88
2023/10/14 07:27:13;;;;;;;10.20;5.50;;;;;;;19.68;85.49;98972.55;184171;1235;59435;-89
2023/10/14 07:31:23;;;;;;;8.70;4.70;;;;;;;19.76;85.42;98978.17;184376;1238;45972;-90
2023/10/14 07:35:28;;;;;;;6.40;4.30;;;;;;;19.88;86.60;98974.06;184487;1235;45806;-89
2023/10/14 07:39:32;;;;;;;12.50;5.80;;;;;;;19.99;86.55;98973.46;184316;1235;45508;-86
2023/10/14 07:43:35;;;;;;;8.20;4.50;;;;;;;20.13;87.51;98976.71;184600;1238;45980;-89
2023/10/14 07:47:40;;;;;;;5.50;4.30;;;;;;;20.32;87.87;98972.35;184390;1234;59445;-89
2023/10/14 07:52:00;;;;;;;8.50;4.90;;;;;;;20.48;87.39;98981.38;184948;1235;44861;-90
2023/10/14 07:56:10;;;;;;;9.90;5.30;;;;;;;20.57;86.24;98974.15;184802;1235;45942;-89
2023/10/14 08:04:46;;;;;;;9.00;4.80;;;;;;;20.80;85.74;98977.62;185788;1235;84493;-61
2023/10/14 08:08:50;;;;;;;7.30;4.80;;;;;;;20.79;85.84;98980.23;185187;1235;57977;-62
2023/10/14 08:12:53;;;;;;;8.50;5.00;;;;;;;20.78;85.80;98985.82;184983;1235;43565;-61
2023/10/14 08:17:01;;;;;;;8.50;4.70;;;;;;;20.76;85.51;98986.05;185128;1235;45957;-61
2023/10/14 08:21:03;;;;;;;5.70;4.40;;;;;;;20.78;84.30;98986.61;185284;1235;44755;-61
2023/10/14 08:25:07;;;;;;;8.20;4.80;;;;;;;21.01;83.97;98984.41;185606;1235;44008;-62
2023/10/14 08:29:12;;;;;;;8.70;5.00;;;;;;;21.26;83.44;98982.95;185503;1234;59415;-62
2023/10/14 08:33:16;;;;;;;7.00;4.30;;;;;;;21.46;81.24;98983.42;185445;1234;44577;-64
2023/10/14 08:37:18;;;;;;;8.90;5.00;;;;;;;21.68;80.03;98985.42;185172;1235;46036;-62
2023/10/14 08:41:22;;;;;;;12.30;4.40;;;;;;;21.92;80.20;98980.08;185354;1234;45905;-62
2023/10/14 08:45:28;;;;;;;8.00;4.20;;;;;;;22.18;79.34;98976.87;185122;1234;45911;-62
2023/10/14 08:49:32;;;;;;;9.50;4.80;;;;;;;22.41;76.31;98973.83;185215;1234;59475;-62
2023/10/14 08:53:42;;;;;;;7.40;5.10;;;;;;;22.65;76.59;98968.90;185073;1234;46239;-62
2023/10/14 08:57:51;;;;;;;6.60;3.40;;;;;;;22.86;74.52;98964.73;185217;1235;45812;-62
2023/10/14 09:01:56;;;;;;;;;;;;;;;23.08;73.68;98972.17;185067;1235;45248;-62
2023/10/14 09:06:01;;;;;;;9.80;3.80;;;;;;;23.28;73.60;98967.81;185276;1235;44293;-62
2023/10/14 09:10:04;;;;;;;8.60;4.60;;;;;;;23.41;73.24;98965.40;185142;1234;58262;-63
2023/10/14 09:14:10;;;;;;;5.50;4.10;;;;;;;23.61;73.35;98968.14;185250;1236;43727;-62
2023/10/14 09:18:14;;;;;;;6.10;3.90;;;;;;;23.75;72.21;98969.46;185153;1234;46066;-62
2023/10/14 09:22:33;;;;;;;9.70;5.80;;;;;;;23.86;70.95;98972.20;185086;1235;45767;-63
2023/10/14 09:26:43;;;;;;;9.00;4.20;;;;;;;24.00;70.68;98972.33;184864;1235;45874;-63
2023/10/14 09:30:51;;;;;;;11.50;4.70;;;;;;;24.11;70.23;98980.14;184940;1234;59638;-61
2023/10/14 09:34:58;;;;;;;131.50;48.70;;;;;;;24.23;69.56;98987.23;184947;1235;45916;-60
2023/10/14 09:39:13;;;;;;;14.70;5.70;;;;;;;24.22;70.11;98991.23;185279;1235;43766;-60
2023/10/14 09:43:17;;;;;;;9.50;4.50;;;;;;;24.08;69.81;99002.14;185208;1235;43846;-60
2023/10/14 09:47:26;;;;;;;8.50;4.80;;;;;;;23.91;69.62;99009.76;185434;1235;44742;-60
2023/10/14 09:51:32;;;;;;;5.00;3.70;;;;;;;23.66;70.28;99017.69;185502;1234;59012;-61
2023/10/14 10:19:23;;;;;;;4.90;3.50;;;;;;;20.97;85.25;99134.36;181671;1259;85932;-61
2023/10/14 10:23:27;;;;;;;3.60;2.40;;;;;;;20.52;92.36;99145.86;184133;1244;45812;-61
2023/10/14 10:27:31;;;;;;;7.50;4.40;;;;;;;20.39;94.89;99149.23;185170;1237;84702;-90
2023/10/14 10:31:33;;;;;;;6.70;2.70;;;;;;;20.22;98.24;99158.60;184334;1235;46061;-90
2023/10/14 10:36:11;;;;;;;4.50;2.20;;;;;;;20.19;99.26;99159.77;184192;1235;59176;-89
2023/10/14 10:40:26;;;;;;;5.80;2.60;;;;;;;20.03;100.00;99179.78;184557;1237;45879;-90
2023/10/14 10:48:49;;;;;;;6.50;3.40;;;;;;;19.50;100.00;99214.94;184592;1235;84077;-88
2023/10/14 10:53:17;;;;;;;8.70;3.00;;;;;;;19.35;100.00;99224.55;184185;1235;45937;-90
2023/10/14 10:57:20;;;;;;;3.90;2.60;;;;;;;19.03;100.00;99241.73;184303;1239;59526;-91
2023/10/14 11:01:31;;;;;;;6.40;2.80;;;;;;;18.56;100.00;99249.14;183975;1235;44827;-90
2023/10/14 11:05:35;;;;;;;4.60;3.30;;;;;;;18.07;100.00;99269.98;185043;1235;46065;-88
2023/10/14 11:23:38;;;;;;;0.80;0.70;;;;;;;16.53;100.00;99338.68;184267;1235;45853;-86
2023/10/14 11:27:42;;;;;;;1.00;0.30;;;;;;;16.16;100.00;99353.79;186657;1235;43067;-68
2023/10/14 11:31:44;;;;;;;1.50;0.30;;;;;;;15.60;100.00;99357.00;186517;1235;43295;-67
2023/10/14 11:36:02;;;;;;;0.90;0.20;;;;;;;15.36;100.00;99381.39;186684;1235;42949;-68
2023/10/14 11:40:19;;;;;;;0.80;0.50;;;;;;;15.22;100.00;99398.23;186456;1235;58408;-69
2023/10/14 11:44:21;;;;;;;;;;;;;;;15.21;100.00;99410.77;186909;1233;43345;-70
2023/10/14 11:48:26;;;;;;;0.80;0.40;;;;;;;15.25;100.00;99403.05;187124;1233;42772;-69
2023/10/14 11:52:32;;;;;;;1.60;0.40;;;;;;;15.20;100.00;99410.08;187131;1234;43632;-71
2023/10/14 11:56:36;;;;;;;2.10;0.60;;;;;;;15.12;100.00;99411.86;186836;1235;43334;-71
2023/10/14 12:00:38;;;;;;;0.60;0.50;;;;;;;15.12;100.00;99421.27;186875;1234;58368;-69
2023/10/14 12:04:43;;;;;;;0.80;0.50;;;;;;;15.09;100.00;99436.29;187126;1234;43499;-69
2023/10/14 12:08:53;;;;;;;0.80;0.70;;;;;;;15.09;100.00;99448.77;187222;1233;43002;-70
2023/10/14 12:12:55;;;;;;;1.00;0.90;;;;;;;15.07;100.00;99447.77;187135;1233;42999;-68
2023/10/14 12:17:04;;;;;;;1.20;0.90;;;;;;;14.96;100.00;99453.41;187161;1233;43658;-70
2023/10/14 12:21:06;;;;;;;3.20;0.90;;;;;;;14.87;100.00;99464.61;186906;1233;58215;-71
2023/10/14 12:25:08;;;;;;;4.70;0.90;;;;;;;14.81;100.00;99460.36;187153;1233;42979;-68
2023/10/14 12:29:11;;;;;;;2.00;1.00;;;;;;;14.87;100.00;99456.74;187151;1233;43575;-68
2023/10/14 12:33:19;;;;;;;1.60;0.90;;;;;;;14.94;100.00;99463.67;186887;1233;43053;-68
2023/10/14 12:37:24;;;;;;;4.90;0.90;;;;;;;15.14;100.00;99463.71;186983;1234;43106;-68
2023/10/14 12:41:28;;;;;;;1.60;1.00;;;;;;;15.50;100.00;99471.92;187191;1232;59248;-69
2023/10/14 12:45:32;;;;;;;3.30;1.00;;;;;;;15.58;100.00;99473.43;187223;1233;43238;-69
2023/10/14 12:49:36;;;;;;;1.00;0.80;;;;;;;15.49;100.00;99469.39;187216;1233;43580;-69
2023/10/14 12:53:47;;;;;;;3.70;1.10;;;;;;;15.47;100.00;99469.97;187159;1232;43783;-69
2023/10/14 12:57:54;;;;;;;2.00;0.60;;;;;;;15.41;100.00;99473.77;187212;1233;42955;-69
2023/10/14 13:01:59;;;;;;;2.30;0.80;;;;;;;15.48;100.00;99467.58;187157;1234;58729;-69
2023/10/14 13:06:06;;;;;;;1.80;1.10;;;;;;;15.51;100.00;99459.54;187164;1233;43393;-69
2023/10/14 13:10:09;;;;;;;2.20;1.10;;;;;;;15.47;100.00;99459.99;187177;1233;43618;-69
2023/10/14 13:14:25;;;;;;;3.50;1.20;;;;;;;15.59;100.00;99458.10;186984;1232;43628;-69
2023/10/14 13:18:31;;;;;;;1.30;1.10;;;;;;;15.66;100.00;99464.82;186903;1233;42964;-70
2023/10/14 13:22:33;;;;;;;2.40;1.60;;;;;;;15.51;100.00;99477.35;186929;1233;58287;-69
2023/10/14 13:27:17;;;;;;;3.80;1.00;;;;;;;15.55;100.00;99478.70;187174;1233;43334;-71
2023/10/14 13:31:20;;;;;;;2.00;1.20;;;;;;;15.84;100.00;99479.84;187287;1233;42976;-69
2023/10/14 13:35:31;;;;;;;3.00;1.30;;;;;;;16.16;100.00;99483.80;187241;1232;42993;-69
2023/10/14 13:39:35;;;;;;;1.80;0.80;;;;;;;16.35;100.00;99483.73;187294;1234;42979;-69
2023/10/14 13:43:44;;;;;;;2.40;2.00;;;;;;;16.53;100.00;99480.05;187222;1232;58602;-69
2023/10/14 13:47:48;;;;;;;1.50;1.20;;;;;;;16.62;100.00;99482.58;186866;1232;42960;-68
2023/10/14 13:51:52;;;;;;;2.60;1.30;;;;;;;16.62;100.00;99485.98;186915;1234;43656;-69
2023/10/14 13:55:56;;;;;;;2.50;1.20;;;;;;;16.57;100.00;99489.90;187240;1232;43017;-69
2023/10/14 14:00:07;;;;;;;2.00;0.80;;;;;;;16.51;100.00;99497.25;187181;1232;43616;-69
2023/10/14 14:04:10;;;;;;;1.10;0.90;;;;;;;16.60;100.00;99512.83;187214;1233;57899;-70
2023/10/14 14:08:18;;;;;;;6.30;1.70;;;;;;;16.71;100.00;99509.25;187184;1232;43293;-71
2023/10/14 14:12:21;;;;;;;2.20;1.20;;;;;;;16.74;100.00;99508.17;186933;1233;43249;-72
2023/10/14 14:16:36;;;;;;;5.60;1.30;;;;;;;16.82;99.51;99513.98;187174;1233;43734;-70
2023/10/14 14:20:37;;;;;;;2.60;1.40;;;;;;;16.57;96.57;99508.35;187184;1232;43780;-68
2023/10/14 14:24:42;;;;;;;3.50;0.80;;;;;;;16.28;98.16;99507.44;187267;1233;58667;-68
2023/10/14 14:28:49;;;;;;;2.60;1.30;;;;;;;15.97;99.58;99510.02;187117;1232;43593;-68
2023/10/14 14:33:45;;;;;;;2.80;1.50;;;;;;;15.86;100.00;99516.95;187182;1232;43525;-67
2023/10/14 14:37:47;;;;;;;3.40;1.90;;;;;;;15.88;99.92;99524.10;187235;1232;43007;-69
2023/10/14 14:41:52;;;;;;;1.70;1.00;;;;;;;15.89;99.96;99527.81;186946;1233;43806;-67
2023/10/14 14:45:55;;;;;;;3.10;2.00;;;;;;;15.85;99.91;99526.71;186908;1233;58443;-67
2023/10/14 14:49:57;;;;;;;2.60;1.00;;;;;;;15.82;99.46;99536.90;187196;1233;43628;-67
2023/10/14 14:54:02;;;;;;;4.90;2.00;;;;;;;15.69;99.03;99540.57;186951;1232;42976;-67
2023/10/14 14:58:04;;;;;;;2.00;1.20;;;;;;;15.60;98.54;99555.03;187229;1233;43094;-67
2023/10/14 15:02:07;;;;;;;3.00;1.40;;;;;;;15.65;99.89;99563.75;187168;1232;43293;-67
2023/10/14 15:06:08;;;;;;;3.10;2.20;;;;;;;15.70;99.97;99562.20;187161;1232;59628;-67
2023/10/14 15:10:10;;;;;;;2.50;1.50;;;;;;;15.72;99.10;99561.11;187175;1233;43758;-67
2023/10/14 15:14:16;;;;;;;2.60;1.30;;;;;;;15.69;98.70;99565.95;187211;1233;43099;-66
2023/10/14 15:18:19;;;;;;;3.20;1.70;;;;;;;15.56;98.80;99564.70;186949;1233;43074;-67
2023/10/14 15:22:22;;;;;;;1.70;0.90;;;;;;;15.46;99.91;99566.27;186791;1233;43079;-65
2023/10/14 15:26:25;;;;;;;2.30;1.30;;;;;;;15.39;100.00;99564.48;187028;1234;57716;-65
2023/10/14 15:30:28;;;;;;;3.00;1.70;;;;;;;15.36;99.24;99564.91;186999;1233;43832;-66
2023/10/14 15:34:30;;;;;;;2.90;1.30;;;;;;;15.35;97.78;99562.64;186956;1232;43674;-65
2023/10/14 15:38:32;;;;;;;4.00;2.00;;;;;;;15.34;97.75;99553.90;187168;1233;43919;-66
2023/10/14 15:43:06;;;;;;;5.00;1.80;;;;;;;15.31;98.11;99552.80;187193;1233;42972;-65
2023/10/14 15:47:10;;;;;;;6.90;2.50;;;;;;;15.26;98.62;99569.41;187165;1232;58454;-66
2023/10/14 15:51:18;;;;;;;4.50;1.80;;;;;;;15.22;99.20;99576.45;187203;1232;43031;-67
2023/10/14 15:55:23;;;;;;;3.80;1.90;;;;;;;15.14;100.00;99583.21;187019;1233;43665;-66
2023/10/14 15:59:25;;;;;;;3.40;2.30;;;;;;;15.10;100.00;99571.34;186799;1233;42999;-68
2023/10/14 16:03:27;;;;;;;5.80;2.20;;;;;;;15.04;100.00;99577.90;186977;1233;43136;-68
2023/10/14 16:07:33;;;;;;;10.80;3.60;;;;;;;14.99;100.00;99587.57;187178;1236;58022;-68
2023/10/14 16:11:36;;;;;;;5.80;2.50;;;;;;;14.99;100.00;99589.35;187233;1233;43077;-68
2023/10/14 16:16:08;;;;;;;8.20;3.20;;;;;;;15.00;100.00;99592.45;187253;1232;43619;-68
2023/10/14 16:20:12;;;;;;;6.40;2.80;;;;;;;14.98;100.00;99610.45;186981;1232;43792;-68
2023/10/14 16:24:15;;;;;;;3.70;2.40;;;;;;;15.01;100.00;99618.73;186965;1233;43748;-68
2023/10/14 16:28:18;;;;;;;3.60;2.00;;;;;;;15.05;100.00;99610.43;187227;1232;57658;-69
2023/10/14 16:32:23;;;;;;;3.80;2.30;;;;;;;15.09;100.00;99615.94;187198;1233;42998;-69
2023/10/14 16:36:27;;;;;;;6.30;2.40;;;;;;;15.09;100.00;99631.67;187231;1233;42974;-69
2023/10/14 16:40:28;;;;;;;3.00;2.20;;;;;;;15.02;100.00;99637.39;187214;1233;43019;-69
2023/10/14 16:44:31;;;;;;;7.30;3.10;;;;;;;14.97;100.00;99650.99;187229;1233;43575;-69
2023/10/14 16:48:32;;;;;;;7.20;3.30;;;;;;;14.90;100.00;99631.75;187278;1233;58232;-69
2023/10/14 16:52:38;;;;;;;18.50;2.80;;;;;;;14.84;100.00;99631.48;187221;1232;43047;-69
2023/10/14 16:56:40;;;;;;;4.90;2.60;;;;;;;14.77;100.00;99656.91;186923;1233;43644;-69
2023/10/14 17:00:41;;;;;;;2.80;2.00;;;;;;;14.72;100.00;99656.73;187169;1232;43598;-68
2023/10/14 17:04:43;;;;;;;5.90;2.40;;;;;;;14.63;100.00;99669.44;187149;1233;43009;-68
2023/10/14 17:08:53;;;;;;;9.90;2.40;;;;;;;14.57;99.92;99662.21;187152;1233;57967;-70
2023/10/14 17:12:57;;;;;;;7.50;3.00;;;;;;;14.54;99.82;99672.36;187015;1234;43944;-69
2023/10/14 17:16:59;;;;;;;3.90;1.90;;;;;;;14.48;99.49;99684.95;187218;1232;43680;-70
2023/10/14 17:21:05;;;;;;;6.50;2.70;;;;;;;14.43;99.32;99690.33;187171;1233;42984;-69
2023/10/14 17:25:08;;;;;;;;;;;;;;;14.38;99.78;99692.86;187181;1233;43739;-68
2023/10/14 17:29:12;;;;;;;8.50;2.60;;;;;;;14.35;99.97;99701.19;186992;1233;57179;-68
2023/10/14 17:33:17;;;;;;;9.20;3.00;;;;;;;14.31;99.98;99702.44;187135;1233;43749;-68
2023/10/14 17:52:13;;;;;;;7.80;3.30;;;;;;;14.54;99.03;99698.09;180916;1262;579182;-65
2023/10/14 17:56:20;;;;;;;4.10;2.40;;;;;;;14.56;98.35;99694.16;184752;1234;60024;-65
2023/10/14 18:00:26;;;;;;;11.50;3.80;;;;;;;14.47;98.32;99691.39;185308;1234;43977;-64
2023/10/14 18:04:31;;;;;;;8.90;2.80;;;;;;;14.38;98.85;99722.98;185109;1234;46002;-68
2023/10/14 18:09:29;;;;;;;5.30;3.90;;;;;;;14.29;99.03;99735.52;185177;1235;43935;-65
2023/10/14 18:13:33;;;;;;;8.50;3.70;;;;;;;14.19;98.96;99729.30;185266;1233;45985;-67
2023/10/14 18:17:35;;;;;;;5.60;2.70;;;;;;;14.12;98.07;99732.12;185158;1234;58648;-67
2023/10/14 18:21:37;;;;;;;6.70;2.90;;;;;;;14.02;96.54;99732.09;185090;1233;44168;-65
2023/10/14 18:25:40;;;;;;;4.90;2.80;;;;;;;13.91;96.22;99737.53;185251;1234;45880;-69
2023/10/14 18:29:45;;;;;;;;;;;;;;;13.77;96.54;99747.19;185210;1233;45665;-65
2023/10/14 18:33:47;;;;;;;8.70;3.50;;;;;;;13.69;97.01;99747.42;185152;1237;43432;-66
2023/10/14 18:37:50;;;;;;;9.90;3.20;;;;;;;13.57;97.68;99741.85;187111;1233;58472;-65
2023/10/14 18:41:52;;;;;;;13.70;4.10;;;;;;;13.48;98.12;99741.64;186779;1234;43625;-65
2023/10/14 18:45:54;;;;;;;10.70;3.30;;;;;;;13.39;99.20;99740.36;186859;1237;43610;-65
2023/10/14 18:49:55;;;;;;;7.30;3.00;;;;;;;13.31;99.87;99747.95;186918;1234;43682;-68
2023/10/14 18:53:57;;;;;;;8.00;3.50;;;;;;;13.24;100.00;99747.34;187041;1234;43328;-67
2023/10/14 18:58:04;;;;;;;11.10;2.80;;;;;;;13.19;100.00;99754.31;187024;1234;59305;-66
2023/10/14 19:02:07;;;;;;;10.80;3.80;;;;;;;13.12;100.00;99769.91;187074;1234;43594;-66
2023/10/14 19:06:08;;;;;;;11.80;3.80;;;;;;;13.05;100.00;99775.96;187037;1233;43295;-65
2023/10/14 19:10:14;;;;;;;6.00;3.60;;;;;;;12.99;99.82;99777.63;187055;1234;43036;-66
2023/10/14 19:14:17;;;;;;;8.70;3.10;;;;;;;12.85;99.33;99770.77;186700;1233;43299;-68
2023/10/14 19:18:19;;;;;;;4.90;2.60;;;;;;;12.72;99.17;99770.14;187035;1235;59033;-67
2023/10/14 19:22:21;;;;;;;13.80;3.90;;;;;;;12.59;98.83;99775.70;186837;1234;43651;-65
2023/10/14 19:26:28;;;;;;;11.90;3.70;;;;;;;12.46;98.47;99782.80;186456;1236;43419;-65
2023/10/14 19:30:32;;;;;;;3.50;1.80;;;;;;;12.33;99.03;99787.59;186433;1236;43642;-66
2023/10/14 19:34:35;;;;;;;10.90;4.20;;;;;;;12.20;99.00;99791.14;186469;1237;42969;-65
2023/10/14 19:38:38;;;;;;;5.20;3.50;;;;;;;12.11;99.49;99786.31;186457;1236;59452;-67
2023/10/14 19:42:44;;;;;;;7.20;4.30;;;;;;;12.00;99.87;99787.56;186479;1235;43281;-67
2023/10/14 19:46:46;;;;;;;5.00;3.10;;;;;;;11.89;100.00;99794.06;186474;1236;42986;-66
2023/10/14 19:50:50;;;;;;;10.00;4.10;;;;;;;11.83;100.00;99793.23;186503;1236;43633;-68
2023/10/14 19:54:52;;;;;;;7.80;4.80;;;;;;;11.78;100.00;99796.40;186336;1238;43679;-64
2023/10/14 19:59:23;;;;;;;7.60;3.30;;;;;;;11.79;100.00;99799.45;186406;1236;59341;-65
2023/10/14 20:03:24;;;;;;;6.60;3.00;;;;;;;11.75;100.00;99807.27;186472;1236;43617;-65
2023/10/14 20:07:27;;;;;;;6.50;3.40;;;;;;;11.72;100.00;99800.13;186492;1237;43313;-66
2023/10/14 20:11:31;;;;;;;8.90;4.00;;;;;;;11.71;100.00;99802.19;186444;1237;43785;-66
2023/10/14 20:20:51;;;;;;;7.70;4.20;;;;;;;11.66;100.00;99818.09;186564;1236;58395;-65
2023/10/14 20:24:53;;;;;;;19.70;5.30;;;;;;;11.65;100.00;99823.04;186454;1236;43558;-65
2023/10/14 20:29:01;;;;;;;15.90;4.40;;;;;;;11.61;100.00;99823.05;186548;1237;43128;-66